createdAt,value
2022-07-27T00:01:21.326Z,544.42
2022-07-27T00:03:50.175Z,528.72
2022-07-27T00:06:18.824Z,518.63
2022-07-27T00:08:47.361Z,512.38
2022-07-27T00:11:16.018Z,493.30
2022-07-27T00:13:46.359Z,507.23
2022-07-27T00:16:15.172Z,505.50
2022-07-27T00:18:43.836Z,509.35
2022-07-27T00:21:12.553Z,520.88
2022-07-27T00:23:42.024Z,470.48
2022-07-27T00:26:10.707Z,533.40
2022-07-27T00:28:39.296Z,499.13
2022-07-27T00:31:09.383Z,498.75
2022-07-27T00:33:38.522Z,530.42
2022-07-27T00:36:07.877Z,512.65
2022-07-27T00:38:36.426Z,524.00
2022-07-27T00:41:06.222Z,512.30
2022-07-27T00:43:35.452Z,508.60
2022-07-27T00:46:04.940Z,501.52
2022-07-27T00:48:35.260Z,507.23
2022-07-27T00:51:03.975Z,491.30
2022-07-27T00:53:32.723Z,494.95
2022-07-27T00:56:01.591Z,498.50
2022-07-27T00:58:31.055Z,471.33
2022-07-27T01:01:00.114Z,501.25
2022-07-27T01:03:29.803Z,470.38
2022-07-27T01:06:01.927Z,477.25
2022-07-27T01:08:30.930Z,488.55
2022-07-27T01:11:00.403Z,488.17
2022-07-27T01:13:31.392Z,454.10
2022-07-27T01:16:00.356Z,462.63
2022-07-27T01:18:32.247Z,434.80
2022-07-27T01:21:04.979Z,437.10
2022-07-27T01:23:35.656Z,468.70
2022-07-27T01:26:05.709Z,429.83
2022-07-27T01:28:34.444Z,459.27
2022-07-27T01:31:03.247Z,462.98
2022-07-27T01:33:32.017Z,447.48
2022-07-27T01:36:00.668Z,446.33
2022-07-27T01:38:29.410Z,489.50
2022-07-27T01:40:59.683Z,491.73
2022-07-27T01:43:28.389Z,501.48
2022-07-27T01:45:57.399Z,475.88
2022-07-27T01:48:26.128Z,510.63
2022-07-27T01:50:55.267Z,466.05
2022-07-27T01:53:24.674Z,509.92
2022-07-27T01:55:53.644Z,452.85
2022-07-27T01:58:23.748Z,464.83
2022-07-27T02:00:52.609Z,475.77
2022-07-27T02:03:21.266Z,480.88
2022-07-27T02:05:49.967Z,437.60
2022-07-27T02:08:18.839Z,469.27
2022-07-27T02:11:04.942Z,437.15
2022-07-27T02:13:35.558Z,466.70
2022-07-27T02:16:04.239Z,451.08
2022-07-27T02:18:41.138Z,467.75
2022-07-27T02:21:10.737Z,438.13
2022-07-27T02:23:40.545Z,460.55
2022-07-27T02:26:10.164Z,468.83
2022-07-27T02:28:40.067Z,467.48
2022-07-27T02:31:08.637Z,479.50
2022-07-27T02:33:37.321Z,439.88
2022-07-27T02:36:06.672Z,436.88
2022-07-27T02:38:35.354Z,488.20
2022-07-27T02:41:04.056Z,451.23
2022-07-27T02:43:32.868Z,478.92
2022-07-27T02:46:03.023Z,449.15
2022-07-27T02:48:33.407Z,417.13
2022-07-27T02:51:03.165Z,451.13
2022-07-27T02:53:32.432Z,463.70
2022-07-27T02:56:01.158Z,458.27
2022-07-27T02:58:29.889Z,456.10
2022-07-27T03:00:58.946Z,450.00
2022-07-27T03:03:36.542Z,463.35
2022-07-27T03:06:06.100Z,435.15
2022-07-27T03:08:34.846Z,419.40
2022-07-27T03:11:03.553Z,451.67
2022-07-27T03:13:32.285Z,441.63
2022-07-27T03:16:01.740Z,456.08
2022-07-27T03:18:31.965Z,434.42
2022-07-27T03:21:00.687Z,411.58
2022-07-27T03:23:29.472Z,425.73
2022-07-27T03:25:58.144Z,435.85
2022-07-27T03:28:27.673Z,441.08
2022-07-27T03:30:56.495Z,417.17
2022-07-27T03:33:25.675Z,424.98
2022-07-27T03:35:55.809Z,448.27
2022-07-27T03:38:24.524Z,408.42
2022-07-27T03:40:53.257Z,413.55
2022-07-27T03:43:21.994Z,442.52
2022-07-27T03:45:50.686Z,406.40
2022-07-27T03:48:19.410Z,414.73
2022-07-27T03:50:48.409Z,389.00
2022-07-27T03:53:21.549Z,416.67
2022-07-27T03:55:50.416Z,433.15
2022-07-27T03:58:19.293Z,387.98
2022-07-27T04:03:57.329Z,413.98
2022-07-27T04:06:26.293Z,385.30
2022-07-27T04:09:07.830Z,431.95
2022-07-27T04:11:43.602Z,387.80
2022-07-27T04:14:19.922Z,405.88
2022-07-27T04:16:48.835Z,454.60
2022-07-27T04:19:17.538Z,451.30
2022-07-27T04:21:46.297Z,426.02
2022-07-27T04:24:16.473Z,450.65
2022-07-27T04:26:45.778Z,425.00
2022-07-27T04:29:19.980Z,401.75
2022-07-27T04:31:49.446Z,409.25
2022-07-27T04:34:18.078Z,415.98
2022-07-27T04:36:46.742Z,424.20
2022-07-27T04:39:16.874Z,408.17
2022-07-27T04:41:45.730Z,417.63
2022-07-27T04:44:14.429Z,397.30
2022-07-27T04:46:43.355Z,398.00
2022-07-27T04:49:12.366Z,358.20
2022-07-27T04:51:45.391Z,381.65
2022-07-27T04:54:14.453Z,394.58
2022-07-27T04:56:44.585Z,405.48
2022-07-27T04:59:13.731Z,384.60
2022-07-27T05:01:42.687Z,406.30
2022-07-27T05:04:11.642Z,385.55
2022-07-27T05:06:40.712Z,397.80
2022-07-27T05:09:09.663Z,437.33
2022-07-27T05:11:38.563Z,427.65
2022-07-27T05:14:09.299Z,398.35
2022-07-27T05:16:40.619Z,361.77
2022-07-27T05:19:09.625Z,381.90
2022-07-27T05:21:38.534Z,385.77
2022-07-27T05:24:07.747Z,396.65
2022-07-27T05:26:36.452Z,407.13
2022-07-27T05:29:05.548Z,386.00
2022-07-27T05:31:36.019Z,370.73
2022-07-27T05:34:04.743Z,395.70
2022-07-27T05:36:33.430Z,412.83
2022-07-27T05:39:02.214Z,373.95
2022-07-27T05:41:31.305Z,415.17
2022-07-27T05:43:59.964Z,365.58
2022-07-27T05:46:32.641Z,374.92
2022-07-27T05:49:03.057Z,369.27
2022-07-27T05:51:32.237Z,372.63
2022-07-27T05:54:01.430Z,392.58
2022-07-27T05:56:30.252Z,395.55
2022-07-27T05:59:02.574Z,384.98
2022-07-27T06:01:33.795Z,374.55
2022-07-27T06:04:04.149Z,417.50
2022-07-27T06:06:50.423Z,387.27
2022-07-27T06:09:19.052Z,375.85
2022-07-27T06:11:47.708Z,453.27
2022-07-27T06:14:16.476Z,459.25
2022-07-27T06:16:45.191Z,538.50
2022-07-27T06:19:16.141Z,593.45
2022-07-27T06:21:44.770Z,629.45
2022-07-27T06:24:14.725Z,645.88
2022-07-27T06:26:43.459Z,684.80
2022-07-27T06:29:13.870Z,716.92
2022-07-27T06:31:43.237Z,729.95
2022-07-27T06:34:14.899Z,755.35
2022-07-27T06:36:45.401Z,751.38
2022-07-27T06:39:14.634Z,778.63
2022-07-27T06:41:43.494Z,872.70
2022-07-27T06:44:14.983Z,754.85
2022-07-27T06:46:43.854Z,776.63
2022-07-27T06:49:12.853Z,762.47
2022-07-27T06:51:43.324Z,791.75
2022-07-27T06:54:11.931Z,773.78
2022-07-27T06:56:40.552Z,848.47
2022-07-27T06:59:10.143Z,857.95
2022-07-27T07:01:39.066Z,870.80
2022-07-27T07:04:09.386Z,850.60
2022-07-27T07:06:38.271Z,882.63
2022-07-27T07:09:11.144Z,890.20
2022-07-27T07:11:40.017Z,888.45
2022-07-27T07:14:08.623Z,888.88
2022-07-27T07:16:37.336Z,888.65
2022-07-27T07:19:06.524Z,901.65
2022-07-27T07:21:35.139Z,908.42
2022-07-27T07:24:03.745Z,938.75
2022-07-27T07:26:36.685Z,928.47
2022-07-27T07:29:05.462Z,956.53
2022-07-27T07:31:34.244Z,948.95
2022-07-27T07:34:07.691Z,924.47
2022-07-27T07:36:38.898Z,926.30
2022-07-27T07:39:07.606Z,961.75
2022-07-27T07:41:37.728Z,973.83
2022-07-27T07:44:06.796Z,950.15
2022-07-27T07:46:37.110Z,937.72
2022-07-27T07:49:06.420Z,965.72
2022-07-27T07:51:35.089Z,967.28
2022-07-27T07:54:03.861Z,975.33
2022-07-27T07:56:32.442Z,966.28
2022-07-27T07:59:05.141Z,976.72
2022-07-27T08:01:34.073Z,948.58
2022-07-27T08:04:02.939Z,979.63
2022-07-27T08:06:32.140Z,953.90
2022-07-27T08:09:00.836Z,960.30
2022-07-27T08:11:29.447Z,987.83
2022-07-27T08:13:58.149Z,973.28
2022-07-27T08:16:28.589Z,970.88
2022-07-27T08:18:57.364Z,975.97
2022-07-27T08:21:25.956Z,997.63
2022-07-27T08:23:58.806Z,995.97
2022-07-27T08:26:31.347Z,993.55
2022-07-27T08:29:04.424Z,998.38
2022-07-27T08:31:51.314Z,994.15
2022-07-27T08:34:21.945Z,999.90
2022-07-27T08:36:50.556Z,999.90
2022-07-27T08:39:52.978Z,999.90
2022-07-27T08:42:10.943Z,995.35
2022-07-27T08:44:41.939Z,995.17
2022-07-27T08:47:12.689Z,999.55
2022-07-27T08:49:43.919Z,999.90
2022-07-27T08:52:13.636Z,992.22
2022-07-27T08:54:43.287Z,999.90
2022-07-27T08:57:13.256Z,999.85
2022-07-27T08:59:41.921Z,999.90
2022-07-27T09:02:15.650Z,999.90
2022-07-27T09:04:44.344Z,999.90
2022-07-27T09:07:31.172Z,998.40
2022-07-27T09:10:01.541Z,999.90
2022-07-27T09:12:31.742Z,999.90
2022-07-27T09:15:07.469Z,999.90
2022-07-27T09:17:53.812Z,999.90
2022-07-27T09:20:22.683Z,999.90
2022-07-27T09:22:52.838Z,999.90
2022-07-27T09:25:38.754Z,999.90
2022-07-27T09:28:11.730Z,999.90
2022-07-27T09:30:43.932Z,999.90
2022-07-27T09:33:16.695Z,999.90
2022-07-27T09:35:46.421Z,999.90
2022-07-27T09:38:19.454Z,999.90
2022-07-27T09:40:49.819Z,999.90
2022-07-27T09:44:19.784Z,999.90
2022-07-27T09:46:08.458Z,999.90
2022-07-27T09:48:38.617Z,941.03
2022-07-27T09:51:55.943Z,901.70
2022-07-27T09:53:59.549Z,910.83
2022-07-27T09:56:29.801Z,910.30
2022-07-27T09:59:00.116Z,896.30
2022-07-27T10:01:30.379Z,882.65
2022-07-27T10:04:05.659Z,923.53
2022-07-27T10:07:00.402Z,925.10
2022-07-27T10:09:23.064Z,933.95
2022-07-27T10:11:51.817Z,936.83
2022-07-27T10:14:20.398Z,937.35
2022-07-27T10:16:51.880Z,903.38
2022-07-27T10:19:27.054Z,925.22
2022-07-27T10:21:55.757Z,861.58
2022-07-27T10:24:31.684Z,927.72
2022-07-27T10:27:00.467Z,908.95
2022-07-27T10:29:28.975Z,920.70
2022-07-27T10:32:00.514Z,895.63
2022-07-27T10:34:41.157Z,924.15
2022-07-27T10:37:11.648Z,912.58
2022-07-27T10:39:43.256Z,919.78
2022-07-27T10:42:29.610Z,914.08
2022-07-27T10:45:10.567Z,879.10
2022-07-27T10:47:42.294Z,904.83
2022-07-27T10:50:48.369Z,999.90
2022-07-27T10:53:17.004Z,999.90
2022-07-27T10:55:49.524Z,999.90
2022-07-27T10:59:00.642Z,999.90
2022-07-27T11:01:29.364Z,999.90
2022-07-27T11:04:09.344Z,999.90
2022-07-27T11:07:09.970Z,999.90
2022-07-27T11:10:03.631Z,999.90
2022-07-27T11:12:35.350Z,999.90
2022-07-27T11:15:08.018Z,999.90
2022-07-27T11:20:28.709Z,999.90
2022-07-27T11:26:02.236Z,999.90
2022-07-27T11:28:31.495Z,999.90
2022-07-27T11:31:03.671Z,999.90
2022-07-27T11:33:33.138Z,999.90
2022-07-27T11:36:04.319Z,999.90
2022-07-27T11:38:48.040Z,999.90
2022-07-27T11:41:39.867Z,999.90
2022-07-27T11:44:14.851Z,999.90
2022-07-27T11:46:45.686Z,999.90
2022-07-27T11:49:15.794Z,999.90
2022-07-27T11:51:46.143Z,999.90
2022-07-27T11:54:24.712Z,999.90
2022-07-27T11:56:55.365Z,999.90
2022-07-27T11:59:25.451Z,999.90
2022-07-27T12:01:55.749Z,999.90
2022-07-27T12:04:27.345Z,999.90
2022-07-27T12:06:59.534Z,991.40
2022-07-27T12:09:38.041Z,998.75
2022-07-27T12:12:14.049Z,963.95
2022-07-27T12:14:46.028Z,959.97
2022-07-27T12:17:19.215Z,980.65
2022-07-27T12:19:59.010Z,977.28
2022-07-27T12:22:32.818Z,968.17
2022-07-27T12:25:16.002Z,946.15
2022-07-27T12:27:56.626Z,938.78
2022-07-27T12:30:35.936Z,958.85
2022-07-27T12:33:06.476Z,956.50
2022-07-27T12:35:46.112Z,929.72
2022-07-27T12:38:15.095Z,956.85
2022-07-27T12:40:49.689Z,959.58
2022-07-27T12:43:19.836Z,955.60
2022-07-27T12:45:49.229Z,953.83
2022-07-27T12:48:19.908Z,927.85
2022-07-27T12:50:50.673Z,953.30
2022-07-27T12:53:19.301Z,936.15
2022-07-27T12:55:49.543Z,958.30
2022-07-27T12:58:18.120Z,958.80
2022-07-27T13:00:48.112Z,963.28
2022-07-27T13:03:18.890Z,958.25
2022-07-27T13:05:47.968Z,939.97
2022-07-27T13:08:17.162Z,932.45
2022-07-27T13:10:46.176Z,947.83
2022-07-27T13:13:16.120Z,950.20
2022-07-27T13:15:44.693Z,957.25
2022-07-27T13:18:13.163Z,925.10
2022-07-27T13:20:42.659Z,940.78
2022-07-27T13:23:11.150Z,951.13
2022-07-27T13:25:43.346Z,951.28
2022-07-27T13:28:12.465Z,962.20
2022-07-27T13:30:42.396Z,959.35
2022-07-27T13:33:11.041Z,954.95
2022-07-27T13:35:39.578Z,949.78
2022-07-27T13:38:08.613Z,941.67
2022-07-27T13:40:44.916Z,923.63
2022-07-27T13:43:13.412Z,914.30
2022-07-27T13:45:43.867Z,932.58
2022-07-27T13:48:13.449Z,932.65
2022-07-27T13:50:42.452Z,932.50
2022-07-27T13:53:15.320Z,931.83
2022-07-27T13:55:45.295Z,899.45
2022-07-27T13:58:14.459Z,919.75
2022-07-27T14:00:44.367Z,918.75
2022-07-27T14:03:13.048Z,895.75
2022-07-27T14:05:43.584Z,925.22
2022-07-27T14:08:18.478Z,919.67
2022-07-27T14:10:47.000Z,913.97
2022-07-27T14:13:17.420Z,914.88
2022-07-27T14:15:50.805Z,882.97
2022-07-27T14:18:27.887Z,913.88
2022-07-27T14:20:57.480Z,916.35
2022-07-27T14:23:27.673Z,881.38
2022-07-27T14:25:57.623Z,908.17
2022-07-27T14:28:27.432Z,902.30
2022-07-27T14:30:57.845Z,889.65
2022-07-27T14:33:33.259Z,913.40
2022-07-27T14:36:06.471Z,905.28
2022-07-27T14:38:35.198Z,911.15
2022-07-27T14:41:04.897Z,910.10
2022-07-27T14:43:33.609Z,895.10
2022-07-27T14:46:03.835Z,871.47
2022-07-27T14:49:03.310Z,867.58
2022-07-27T14:51:20.929Z,867.05
2022-07-27T14:53:49.444Z,889.13
2022-07-27T14:56:18.187Z,888.10
2022-07-27T14:58:46.755Z,884.53
2022-07-27T15:01:17.270Z,891.95
2022-07-27T15:03:47.291Z,894.25
2022-07-27T15:06:16.034Z,861.10
2022-07-27T15:08:44.718Z,890.97
2022-07-27T15:11:13.308Z,883.45
2022-07-27T15:13:41.808Z,883.67
2022-07-27T15:16:12.032Z,886.88
2022-07-27T15:18:42.426Z,892.05
2022-07-27T15:21:14.255Z,869.13
2022-07-27T15:23:44.670Z,888.30
2022-07-27T15:26:13.810Z,877.78
2022-07-27T15:28:42.611Z,882.10
2022-07-27T15:31:11.525Z,862.70
2022-07-27T15:33:41.619Z,856.95
2022-07-27T15:36:10.391Z,858.75
2022-07-27T15:38:58.985Z,886.70
2022-07-27T15:41:28.360Z,888.17
2022-07-27T15:43:57.594Z,882.05
2022-07-27T15:46:27.752Z,857.17
2022-07-27T15:48:57.965Z,879.42
2022-07-27T15:51:27.225Z,861.85
2022-07-27T15:53:57.234Z,855.92
2022-07-27T15:56:26.273Z,853.17
2022-07-27T15:58:55.118Z,876.38
2022-07-27T16:01:23.691Z,849.92
2022-07-27T16:04:05.806Z,890.60
2022-07-27T16:06:39.231Z,885.53
2022-07-27T16:09:09.624Z,852.47
2022-07-27T16:11:38.836Z,883.30
2022-07-27T16:14:07.311Z,849.70
2022-07-27T16:16:35.950Z,884.47
2022-07-27T16:19:12.660Z,872.00
2022-07-27T16:21:55.323Z,873.03
2022-07-27T16:24:25.490Z,869.90
2022-07-27T16:26:54.301Z,887.85
2022-07-27T16:29:23.444Z,868.22
2022-07-27T16:31:55.034Z,877.10
2022-07-27T16:34:25.192Z,872.72
2022-07-27T16:36:54.142Z,877.03
2022-07-27T16:39:23.079Z,836.05
2022-07-27T16:41:51.979Z,862.00
2022-07-27T16:44:21.758Z,872.67
2022-07-27T16:46:50.779Z,868.53
2022-07-27T16:49:21.886Z,867.53
2022-07-27T16:52:03.365Z,868.65
2022-07-27T16:54:36.966Z,868.05
2022-07-27T16:57:08.133Z,872.92
2022-07-27T16:59:39.482Z,853.90
2022-07-27T17:02:08.340Z,863.47
2022-07-27T17:04:37.067Z,857.58
2022-07-27T17:07:07.003Z,855.92
2022-07-27T17:09:41.437Z,823.80
2022-07-27T17:12:10.385Z,999.90
2022-07-27T17:14:38.872Z,887.20
2022-07-27T17:17:08.533Z,834.60
2022-07-27T17:19:37.135Z,847.45
2022-07-27T17:22:07.280Z,857.60
2022-07-27T17:24:38.185Z,814.42
2022-07-27T17:27:06.926Z,853.00
2022-07-27T17:29:35.450Z,835.97
2022-07-27T17:32:04.231Z,835.03
2022-07-27T17:34:32.802Z,804.38
2022-07-27T17:37:02.433Z,825.95
2022-07-27T17:39:33.442Z,821.33
2022-07-27T17:42:02.202Z,841.30
2022-07-27T17:44:30.887Z,843.10
2022-07-27T17:47:01.267Z,837.83
2022-07-27T17:49:29.960Z,826.40
2022-07-27T17:51:58.727Z,836.03
2022-07-27T17:54:27.338Z,828.47
2022-07-27T17:56:57.253Z,805.83
2022-07-27T17:59:37.464Z,795.38
2022-07-27T18:02:07.112Z,787.00
2022-07-27T18:04:39.126Z,821.38
2022-07-27T18:07:08.137Z,819.08
2022-07-27T18:09:36.618Z,814.28
2022-07-27T18:12:07.505Z,795.45
2022-07-27T18:14:38.453Z,780.13
2022-07-27T18:17:07.053Z,788.95
2022-07-27T18:19:35.620Z,816.55
2022-07-27T18:22:04.095Z,807.03
2022-07-27T18:24:35.716Z,818.47
2022-07-27T18:27:04.297Z,813.45
2022-07-27T18:29:34.148Z,808.25
2022-07-27T18:32:02.966Z,791.00
2022-07-27T18:34:31.424Z,812.40
2022-07-27T18:36:59.904Z,768.55
2022-07-27T18:39:33.613Z,796.55
2022-07-27T18:42:04.031Z,803.75
2022-07-27T18:44:38.863Z,802.50
2022-07-27T18:47:07.982Z,801.78
2022-07-27T18:49:36.644Z,804.75
2022-07-27T18:52:05.590Z,802.60
2022-07-27T18:54:34.648Z,792.42
2022-07-27T18:57:03.493Z,793.47
2022-07-27T18:59:38.181Z,783.22
2022-07-27T19:02:09.891Z,781.17
2022-07-27T19:04:38.422Z,739.85
2022-07-27T19:07:09.944Z,779.88
2022-07-27T19:09:38.497Z,775.97
2022-07-27T19:12:09.756Z,735.55
2022-07-27T19:14:40.320Z,960.97
2022-07-27T19:17:14.821Z,799.55
2022-07-27T19:19:43.826Z,777.22
2022-07-27T19:22:12.977Z,768.17
2022-07-27T19:24:41.597Z,767.45
2022-07-27T19:27:10.448Z,716.78
2022-07-27T19:29:41.221Z,757.30
2022-07-27T19:32:11.140Z,735.60
2022-07-27T19:34:39.922Z,730.40
2022-07-27T19:37:08.485Z,729.95
2022-07-27T19:39:57.173Z,735.72
2022-07-27T19:42:26.734Z,732.85
2022-07-27T19:44:56.716Z,714.75
2022-07-27T19:47:25.782Z,729.25
2022-07-27T19:49:54.342Z,725.13
2022-07-27T19:52:22.902Z,717.47
2022-07-27T19:54:51.475Z,675.75
2022-07-27T19:57:21.321Z,716.85
2022-07-27T19:59:55.828Z,716.75
2022-07-27T20:02:26.615Z,717.17
2022-07-27T20:04:55.131Z,710.83
2022-07-27T20:07:23.648Z,708.95
2022-07-27T20:09:52.357Z,717.78
2022-07-27T20:12:21.628Z,712.38
2022-07-27T20:14:50.110Z,715.63
2022-07-27T20:17:18.622Z,696.35
2022-07-27T20:19:48.735Z,699.92
2022-07-27T20:22:17.238Z,693.20
2022-07-27T20:24:45.771Z,683.42
2022-07-27T20:27:14.363Z,692.00
2022-07-27T20:29:42.855Z,671.50
2022-07-27T20:32:12.659Z,678.97
2022-07-27T20:34:41.212Z,698.83
2022-07-27T20:37:13.253Z,644.80
2022-07-27T20:39:41.954Z,685.20
2022-07-27T20:42:11.063Z,692.08
2022-07-27T20:44:39.544Z,690.80
2022-07-27T20:47:09.147Z,708.13
2022-07-27T20:49:37.639Z,707.20
2022-07-27T20:52:07.712Z,701.47
2022-07-27T20:54:38.577Z,651.88
2022-07-27T20:57:07.680Z,651.67
2022-07-27T20:59:36.643Z,680.78
2022-07-27T21:02:07.848Z,679.45
2022-07-27T21:04:36.714Z,651.85
2022-07-27T21:07:05.618Z,691.83
2022-07-27T21:09:34.225Z,679.22
2022-07-27T21:12:04.354Z,676.45
2022-07-27T21:14:32.919Z,692.92
2022-07-27T21:17:01.628Z,677.33
2022-07-27T21:19:30.334Z,670.55
2022-07-27T21:21:59.159Z,685.47
2022-07-27T21:24:29.007Z,677.03
2022-07-27T21:27:04.436Z,651.97
2022-07-27T21:29:34.811Z,690.80
2022-07-27T21:32:03.420Z,689.08
2022-07-27T21:34:31.880Z,664.65
2022-07-27T21:37:00.595Z,665.90
2022-07-27T21:39:29.106Z,665.78
2022-07-27T21:42:01.835Z,654.42
2022-07-27T21:44:31.267Z,660.00
2022-07-27T21:47:01.227Z,620.67
2022-07-27T21:49:33.985Z,667.83
2022-07-27T21:52:03.389Z,619.83
2022-07-27T21:54:31.855Z,661.20
2022-07-27T21:57:00.335Z,624.30
2022-07-27T21:59:28.880Z,603.22
2022-07-27T22:01:58.951Z,615.35
2022-07-27T22:04:29.350Z,626.13
2022-07-27T22:06:57.846Z,591.55
2022-07-27T22:09:26.322Z,623.58
2022-07-27T22:11:56.239Z,630.15
2022-07-27T22:14:25.480Z,597.97
2022-07-27T22:16:54.170Z,647.28
2022-07-27T22:19:23.572Z,641.05
2022-07-27T22:21:53.470Z,643.45
2022-07-27T22:24:22.407Z,590.33
2022-07-27T22:26:50.982Z,614.10
2022-07-27T22:29:19.470Z,615.50
2022-07-27T22:31:48.007Z,628.33
2022-07-27T22:34:16.908Z,616.80
2022-07-27T22:36:45.810Z,607.97
2022-07-27T22:39:15.706Z,611.80
2022-07-27T22:41:44.197Z,583.88
2022-07-27T22:44:13.094Z,556.65
2022-07-27T22:46:44.587Z,601.90
2022-07-27T22:49:13.142Z,566.78
2022-07-27T22:51:50.019Z,574.67
2022-07-27T22:54:23.582Z,587.22
2022-07-27T22:56:54.658Z,593.17
2022-07-27T22:59:23.151Z,588.00
2022-07-27T23:01:51.722Z,607.95
2022-07-27T23:04:20.666Z,623.80
2022-07-27T23:06:49.400Z,584.38
2022-07-27T23:09:17.910Z,617.50
2022-07-27T23:11:47.844Z,601.45
2022-07-27T23:14:16.803Z,615.95
2022-07-27T23:16:45.914Z,613.20
2022-07-27T23:19:14.429Z,648.58
2022-07-27T23:21:42.906Z,624.20
2022-07-27T23:24:13.525Z,593.45
2022-07-27T23:26:43.498Z,631.38
2022-07-27T23:29:13.373Z,623.97
2022-07-27T23:31:41.851Z,599.58
2022-07-27T23:34:10.672Z,563.17
2022-07-27T23:36:39.267Z,597.22
2022-07-27T23:39:09.848Z,573.10
2022-07-27T23:41:38.298Z,608.65
2022-07-27T23:44:07.034Z,569.35
2022-07-27T23:46:36.933Z,621.92
2022-07-27T23:49:05.451Z,578.92
2022-07-27T23:51:33.965Z,612.85
2022-07-27T23:54:02.522Z,628.85
2022-07-27T23:56:30.979Z,625.92
2022-07-27T23:58:59.446Z,604.97
